Overseas Skopelos — V7SU9 — position and weather

sailwx.info

Track history (hours):
 
Tides and Currents Weather Stations Pressure Air Temp Water Temp Dewpoint Dewpoint Depression Visibility Wind Speed Wind Dir Waves Ship Positions

Overseas Skopelos

Last reported at 2015-Jan-26 21:26 UTC. Time now 2015-Jan-26 22:31 UTC.
Position N 35°31' E 139°46'.

Length 183 m; draft 9.2 m.

Type: Tanker. MMSI: 538003726.

Date/timePositionNaut miles runAvg speedWind from/ knotsBaromVisibWave heightAir tempDewpointWater temp
2015-Jan-26 21:26N 35°31' E 139°46'0 0.0
2015-Jan-26 20:32N 35°31' E 139°46'0 0.0
2015-Jan-26 18:14N 35°31' E 139°46'0 0.0
2015-Jan-26 17:20N 35°31' E 139°46'0 0.0
2015-Jan-26 16:32N 35°31' E 139°46'0 0.0
2015-Jan-26 15:20N 35°31' E 139°46'0 0.0
2015-Jan-26 14:26N 35°31' E 139°46'0 0.0
2015-Jan-26 12:17N 35°31' E 139°46'0 0.0
2015-Jan-26 10:08N 35°31' E 139°46'0 0.0
2015-Jan-26 09:20N 35°31' E 139°46'0 0.0
2015-Jan-26 07:14N 35°31' E 139°46'0 0.0
2015-Jan-26 05:14N 35°31' E 139°46'0 0.0
2015-Jan-26 02:07N 35°31' E 139°46'0 0.0
2015-Jan-26 01:33N 35°31' E 139°46'3 3.3
2015-Jan-26 00:33N 35°28' E 139°47'0 0.1
2015-Jan-25 23:33N 35°28' E 139°47'0 0.0
2015-Jan-25 22:30N 35°28' E 139°47'0 0.0
2015-Jan-25 21:33N 35°28' E 139°47'0 0.0
2015-Jan-25 20:30N 35°28' E 139°47'0 0.0
2015-Jan-25 19:33N 35°28' E 139°47'0 0.1
2015-Jan-25 18:33N 35°28' E 139°47'0 0.0
2015-Jan-25 17:33N 35°28' E 139°47'0 0.0
2015-Jan-25 16:33N 35°28' E 139°47'0 0.0
2015-Jan-25 15:33N 35°28' E 139°47'0 0.0
2015-Jan-25 14:33N 35°28' E 139°47'0 0.0
2015-Jan-25 13:33N 35°28' E 139°47'0 0.1
2015-Jan-25 12:33N 35°28' E 139°47'9 8.6
2015-Jan-25 11:34N 35°20' E 139°44'1110.8
2015-Jan-25 10:34N 35°09' E 139°46'8 7.7
2015-Jan-25 09:34N 35°02' E 139°42'10 9.9
2015-Jan-25 08:33N 34°55' E 139°32'23310.5
2015-Jan-24 10:23N 33°56' E 134°59'1112.9
2015-Jan-24 09:33N 34°07' E 134°58'1412.6
2015-Jan-24 08:26N 34°21' E 135°00'1314.3
2015-Jan-24 07:32N 34°32' E 135°07'9 9.4
2015-Jan-24 06:32N 34°36' E 134°56'  
Track history (hours):
 
Tides and Currents Weather Stations Pressure Air Temp Water Temp Dewpoint Dewpoint Depression Visibility Wind Speed Wind Dir Waves Ship Positions

Overseas Skopelos

Last reported at 2015-Jan-26 21:26 UTC. Time now 2015-Jan-26 22:31 UTC.
Position N 35°31' E 139°46'.

Length 183 m; draft 9.2 m.

Type: Tanker. MMSI: 538003726.

Date/timePositionNaut miles runAvg speedWind from/ knotsBaromVisibWave heightAir tempDewpointWater temp
2015-Jan-26 21:26N 35°31' E 139°46'0 0.0
2015-Jan-26 20:32N 35°31' E 139°46'0 0.0
2015-Jan-26 18:14N 35°31' E 139°46'0 0.0
2015-Jan-26 17:20N 35°31' E 139°46'0 0.0
2015-Jan-26 16:32N 35°31' E 139°46'0 0.0
2015-Jan-26 15:20N 35°31' E 139°46'0 0.0
2015-Jan-26 14:26N 35°31' E 139°46'0 0.0
2015-Jan-26 12:17N 35°31' E 139°46'0 0.0
2015-Jan-26 10:08N 35°31' E 139°46'0 0.0
2015-Jan-26 09:20N 35°31' E 139°46'0 0.0
2015-Jan-26 07:14N 35°31' E 139°46'0 0.0
2015-Jan-26 05:14N 35°31' E 139°46'0 0.0
2015-Jan-26 02:07N 35°31' E 139°46'0 0.0
2015-Jan-26 01:33N 35°31' E 139°46'3 3.3
2015-Jan-26 00:33N 35°28' E 139°47'0 0.1
2015-Jan-25 23:33N 35°28' E 139°47'0 0.0
2015-Jan-25 22:30N 35°28' E 139°47'0 0.0
2015-Jan-25 21:33N 35°28' E 139°47'0 0.0
2015-Jan-25 20:30N 35°28' E 139°47'0 0.0
2015-Jan-25 19:33N 35°28' E 139°47'0 0.1
2015-Jan-25 18:33N 35°28' E 139°47'0 0.0
2015-Jan-25 17:33N 35°28' E 139°47'0 0.0
2015-Jan-25 16:33N 35°28' E 139°47'0 0.0
2015-Jan-25 15:33N 35°28' E 139°47'0 0.0
2015-Jan-25 14:33N 35°28' E 139°47'0 0.0
2015-Jan-25 13:33N 35°28' E 139°47'0 0.1
2015-Jan-25 12:33N 35°28' E 139°47'9 8.6
2015-Jan-25 11:34N 35°20' E 139°44'1110.8
2015-Jan-25 10:34N 35°09' E 139°46'8 7.7
2015-Jan-25 09:34N 35°02' E 139°42'10 9.9
2015-Jan-25 08:33N 34°55' E 139°32'23310.5
2015-Jan-24 10:23N 33°56' E 134°59'1112.9
2015-Jan-24 09:33N 34°07' E 134°58'1412.6
2015-Jan-24 08:26N 34°21' E 135°00'1314.3
2015-Jan-24 07:32N 34°32' E 135°07'9 9.4
2015-Jan-24 06:32N 34°36' E 134°56'  

Dump ship's entire track history